CheckWX is a tool to help pilots better visualize weather data.  It is not intended as a substitute for an official pre-flight weather briefing.

01:08:27 UTC

KMNH METAR
Monument Pass Airport
Monument Pass, Colorado, USA
Current

14 mins ago

KMNH 190054Z AUTO 01013G19KT 10SM VCTS SCT016 SCT027 BKN043 11/08 A3016 RMK AO2 LTG DSNT NW THRU E
Observed
Jun-19 @ 00:54 UTC
Wind
  • 010° at 13 KTS
  • Gusting to 19 KTS
Visibility
10 SM
Flight Rules
VFR
Conditions
Area Thunderstorm
Cloud Levels
  • Scattered at 1,600' AGL
  • Scattered at 2,700' AGL
  • Broken at 4,300' AGL
Temperature
11°C / 52°F
Dewpoint
C / 46°F
Humidity
82%
Altimeter
30.16" Hg
Pressure
1021.32 hPa
Previous

38 mins ago

KMNH 190030Z AUTO 19006KT 10SM BKN070 BKN110 13/10 A3013 RMK AO2 LTG DSNT NE AND W
Observed
Jun-19 @ 00:30 UTC
Wind
  • 190° at 6 KTS
Visibility
10 SM
Flight Rules
VFR
Cloud Levels
  • Broken at 7,000' AGL
  • Broken at 11,000' AGL
Temperature
13°C / 55°F
Dewpoint
10°C / 50°F
Humidity
82%
Altimeter
30.13" Hg
Pressure
1020.32 hPa
Previous

56 mins ago

KMNH 190012Z AUTO 19005KT 10SM VCTS OVC070 13/09 A3013 RMK AO2 LTG DSNT S AND W
Observed
Jun-19 @ 00:12 UTC
Wind
  • 190° at 5 KTS
Visibility
10 SM
Flight Rules
VFR
Conditions
Area Thunderstorm
Cloud Levels
  • Overcast at 7,000' AGL
Temperature
13°C / 55°F
Dewpoint
C / 48°F
Humidity
77%
Altimeter
30.13" Hg
Pressure
1020.32 hPa